sensor_id;sensor_type;location;lat;lon;timestamp;temperature;humidity
1878;DHT22;939;51.426;6.972;2024-03-08T00:01:10;6.20;99.90
1878;DHT22;939;51.426;6.972;2024-03-08T00:03:36;6.20;99.90
1878;DHT22;939;51.426;6.972;2024-03-08T00:06:04;5.90;99.90
1878;DHT22;939;51.426;6.972;2024-03-08T00:08:31;5.70;99.90
1878;DHT22;939;51.426;6.972;2024-03-08T00:10:58;5.50;99.90
1878;DHT22;939;51.426;6.972;2024-03-08T00:13:26;5.70;99.90
1878;DHT22;939;51.426;6.972;2024-03-08T00:15:53;5.50;99.90
1878;DHT22;939;51.426;6.972;2024-03-08T00:18:23;5.60;99.90
1878;DHT22;939;51.426;6.972;2024-03-08T00:20:49;5.70;99.90
1878;DHT22;939;51.426;6.972;2024-03-08T00:23:16;5.70;99.90
1878;DHT22;939;51.426;6.972;2024-03-08T00:25:43;5.60;99.90
1878;DHT22;939;51.426;6.972;2024-03-08T00:28:10;5.60;99.90
1878;DHT22;939;51.426;6.972;2024-03-08T00:30:40;5.70;99.90
1878;DHT22;939;51.426;6.972;2024-03-08T00:33:08;5.80;99.90
1878;DHT22;939;51.426;6.972;2024-03-08T00:35:35;5.90;99.90
1878;DHT22;939;51.426;6.972;2024-03-08T00:38:01;5.60;99.90
1878;DHT22;939;51.426;6.972;2024-03-08T00:40:28;5.80;99.90
1878;DHT22;939;51.426;6.972;2024-03-08T00:42:55;5.50;99.90
1878;DHT22;939;51.426;6.972;2024-03-08T00:45:22;5.40;99.90
1878;DHT22;939;51.426;6.972;2024-03-08T00:47:50;5.40;99.90
1878;DHT22;939;51.426;6.972;2024-03-08T00:50:17;5.40;99.90
1878;DHT22;939;51.426;6.972;2024-03-08T00:52:44;5.40;99.90
1878;DHT22;939;51.426;6.972;2024-03-08T00:55:12;5.30;99.90
1878;DHT22;939;51.426;6.972;2024-03-08T00:57:39;5.30;99.90
1878;DHT22;939;51.426;6.972;2024-03-08T01:00:07;5.40;99.90
1878;DHT22;939;51.426;6.972;2024-03-08T01:02:37;5.30;99.90
1878;DHT22;939;51.426;6.972;2024-03-08T01:05:06;5.30;99.90
1878;DHT22;939;51.426;6.972;2024-03-08T01:07:33;5.30;99.90
1878;DHT22;939;51.426;6.972;2024-03-08T01:10:00;5.50;99.90
1878;DHT22;939;51.426;6.972;2024-03-08T01:12:27;5.40;99.90
1878;DHT22;939;51.426;6.972;2024-03-08T01:14:54;5.40;99.90
1878;DHT22;939;51.426;6.972;2024-03-08T01:17:22;5.60;99.90
1878;DHT22;939;51.426;6.972;2024-03-08T01:19:49;5.50;99.90
1878;DHT22;939;51.426;6.972;2024-03-08T01:22:17;5.60;99.90
1878;DHT22;939;51.426;6.972;2024-03-08T01:24:44;5.50;99.90
1878;DHT22;939;51.426;6.972;2024-03-08T01:27:11;5.60;99.90
1878;DHT22;939;51.426;6.972;2024-03-08T01:29:38;5.40;99.90
1878;DHT22;939;51.426;6.972;2024-03-08T01:32:05;5.40;99.90
1878;DHT22;939;51.426;6.972;2024-03-08T01:34:32;5.60;99.90
1878;DHT22;939;51.426;6.972;2024-03-08T01:36:59;5.50;99.90
1878;DHT22;939;51.426;6.972;2024-03-08T01:39:27;5.60;99.90
1878;DHT22;939;51.426;6.972;2024-03-08T01:41:54;5.60;99.90
1878;DHT22;939;51.426;6.972;2024-03-08T01:44:21;5.60;99.90
1878;DHT22;939;51.426;6.972;2024-03-08T01:46:49;5.60;99.90
1878;DHT22;939;51.426;6.972;2024-03-08T01:49:18;5.50;99.90
1878;DHT22;939;51.426;6.972;2024-03-08T01:51:46;5.60;99.90
1878;DHT22;939;51.426;6.972;2024-03-08T01:54:14;5.60;99.90
1878;DHT22;939;51.426;6.972;2024-03-08T01:56:42;5.50;99.90
1878;DHT22;939;51.426;6.972;2024-03-08T01:59:09;5.50;99.90
1878;DHT22;939;51.426;6.972;2024-03-08T02:01:36;5.50;99.90
1878;DHT22;939;51.426;6.972;2024-03-08T02:04:04;5.30;99.90
1878;DHT22;939;51.426;6.972;2024-03-08T02:06:32;5.10;99.90
1878;DHT22;939;51.426;6.972;2024-03-08T02:09:00;5.00;99.90
1878;DHT22;939;51.426;6.972;2024-03-08T02:11:31;5.20;99.90
1878;DHT22;939;51.426;6.972;2024-03-08T02:13:59;5.30;99.90
1878;DHT22;939;51.426;6.972;2024-03-08T02:16:26;5.30;99.90
1878;DHT22;939;51.426;6.972;2024-03-08T02:18:53;5.40;99.90
1878;DHT22;939;51.426;6.972;2024-03-08T02:21:21;5.40;99.90
1878;DHT22;939;51.426;6.972;2024-03-08T02:23:48;5.40;99.90
1878;DHT22;939;51.426;6.972;2024-03-08T02:26:17;5.40;99.90
1878;DHT22;939;51.426;6.972;2024-03-08T02:28:44;5.30;99.90
1878;DHT22;939;51.426;6.972;2024-03-08T02:31:11;5.10;99.90
1878;DHT22;939;51.426;6.972;2024-03-08T02:33:38;5.20;99.90
1878;DHT22;939;51.426;6.972;2024-03-08T02:36:06;5.30;99.90
1878;DHT22;939;51.426;6.972;2024-03-08T02:38:34;5.30;99.90
1878;DHT22;939;51.426;6.972;2024-03-08T02:41:01;5.30;99.90
1878;DHT22;939;51.426;6.972;2024-03-08T02:43:29;5.40;99.90
1878;DHT22;939;51.426;6.972;2024-03-08T02:45:56;5.40;99.90
1878;DHT22;939;51.426;6.972;2024-03-08T02:48:22;5.30;99.90
1878;DHT22;939;51.426;6.972;2024-03-08T02:50:49;5.20;99.90
1878;DHT22;939;51.426;6.972;2024-03-08T02:53:17;5.20;99.90
1878;DHT22;939;51.426;6.972;2024-03-08T02:55:46;5.30;99.90
1878;DHT22;939;51.426;6.972;2024-03-08T02:58:13;5.20;99.90
1878;DHT22;939;51.426;6.972;2024-03-08T03:00:40;5.20;99.90
1878;DHT22;939;51.426;6.972;2024-03-08T03:03:07;5.20;99.90
1878;DHT22;939;51.426;6.972;2024-03-08T03:05:34;5.20;99.90
1878;DHT22;939;51.426;6.972;2024-03-08T03:08:01;5.20;99.90
1878;DHT22;939;51.426;6.972;2024-03-08T03:10:29;5.20;99.90
1878;DHT22;939;51.426;6.972;2024-03-08T03:12:58;5.20;99.90
1878;DHT22;939;51.426;6.972;2024-03-08T03:15:24;5.20;99.90
1878;DHT22;939;51.426;6.972;2024-03-08T03:17:51;5.30;99.90
1878;DHT22;939;51.426;6.972;2024-03-08T03:20:19;5.20;99.90
1878;DHT22;939;51.426;6.972;2024-03-08T03:22:52;5.20;99.90
1878;DHT22;939;51.426;6.972;2024-03-08T03:25:19;5.20;99.90
1878;DHT22;939;51.426;6.972;2024-03-08T03:27:52;5.20;99.90
1878;DHT22;939;51.426;6.972;2024-03-08T03:30:23;5.10;99.90
1878;DHT22;939;51.426;6.972;2024-03-08T03:32:52;5.10;99.90
1878;DHT22;939;51.426;6.972;2024-03-08T03:35:20;5.00;99.90
1878;DHT22;939;51.426;6.972;2024-03-08T03:37:48;5.00;99.90
1878;DHT22;939;51.426;6.972;2024-03-08T03:40:27;5.00;99.90
1878;DHT22;939;51.426;6.972;2024-03-08T03:42:54;5.00;99.90
1878;DHT22;939;51.426;6.972;2024-03-08T03:45:20;5.00;99.90
1878;DHT22;939;51.426;6.972;2024-03-08T03:47:49;5.00;99.90
1878;DHT22;939;51.426;6.972;2024-03-08T03:50:16;5.00;99.90
1878;DHT22;939;51.426;6.972;2024-03-08T03:52:44;5.00;99.90
1878;DHT22;939;51.426;6.972;2024-03-08T03:55:12;4.90;99.90
1878;DHT22;939;51.426;6.972;2024-03-08T03:57:39;4.90;99.90
1878;DHT22;939;51.426;6.972;2024-03-08T04:00:06;4.90;99.90
1878;DHT22;939;51.426;6.972;2024-03-08T04:02:36;4.90;99.90
1878;DHT22;939;51.426;6.972;2024-03-08T04:05:05;4.90;99.90
1878;DHT22;939;51.426;6.972;2024-03-08T04:07:33;4.90;99.90
1878;DHT22;939;51.426;6.972;2024-03-08T04:10:00;4.90;99.90
1878;DHT22;939;51.426;6.972;2024-03-08T04:12:27;4.90;99.90
1878;DHT22;939;51.426;6.972;2024-03-08T04:14:55;4.80;99.90
1878;DHT22;939;51.426;6.972;2024-03-08T04:17:22;4.80;99.90
1878;DHT22;939;51.426;6.972;2024-03-08T04:19:49;4.80;99.90
1878;DHT22;939;51.426;6.972;2024-03-08T04:22:17;4.80;99.90
1878;DHT22;939;51.426;6.972;2024-03-08T04:24:45;4.80;99.90
1878;DHT22;939;51.426;6.972;2024-03-08T04:27:12;4.80;99.90
1878;DHT22;939;51.426;6.972;2024-03-08T04:29:38;4.80;99.90
1878;DHT22;939;51.426;6.972;2024-03-08T04:32:06;4.70;99.90
1878;DHT22;939;51.426;6.972;2024-03-08T04:34:34;4.80;99.90
1878;DHT22;939;51.426;6.972;2024-03-08T04:37:01;4.70;99.90
1878;DHT22;939;51.426;6.972;2024-03-08T04:39:31;4.70;99.90
1878;DHT22;939;51.426;6.972;2024-03-08T04:42:00;4.70;99.90
1878;DHT22;939;51.426;6.972;2024-03-08T04:44:30;4.60;99.90
1878;DHT22;939;51.426;6.972;2024-03-08T04:46:57;4.60;99.90
1878;DHT22;939;51.426;6.972;2024-03-08T04:49:24;4.60;99.90
1878;DHT22;939;51.426;6.972;2024-03-08T04:51:51;4.40;99.90
1878;DHT22;939;51.426;6.972;2024-03-08T04:54:18;4.30;99.90
1878;DHT22;939;51.426;6.972;2024-03-08T04:56:46;4.30;99.90
1878;DHT22;939;51.426;6.972;2024-03-08T04:59:13;4.40;99.90
1878;DHT22;939;51.426;6.972;2024-03-08T05:01:40;4.40;99.90
1878;DHT22;939;51.426;6.972;2024-03-08T05:04:06;4.40;99.90
1878;DHT22;939;51.426;6.972;2024-03-08T05:06:33;4.40;99.90
1878;DHT22;939;51.426;6.972;2024-03-08T05:09:01;4.50;99.90
1878;DHT22;939;51.426;6.972;2024-03-08T05:11:38;4.50;99.90
1878;DHT22;939;51.426;6.972;2024-03-08T05:14:07;4.50;99.90
1878;DHT22;939;51.426;6.972;2024-03-08T05:16:34;4.40;99.90
1878;DHT22;939;51.426;6.972;2024-03-08T05:19:01;4.40;99.90
1878;DHT22;939;51.426;6.972;2024-03-08T05:21:28;4.40;99.90
1878;DHT22;939;51.426;6.972;2024-03-08T05:23:55;4.50;99.90
1878;DHT22;939;51.426;6.972;2024-03-08T05:26:22;4.40;99.90
1878;DHT22;939;51.426;6.972;2024-03-08T05:28:48;4.40;99.90
1878;DHT22;939;51.426;6.972;2024-03-08T05:31:19;4.40;99.90
1878;DHT22;939;51.426;6.972;2024-03-08T05:33:47;4.40;99.90
1878;DHT22;939;51.426;6.972;2024-03-08T05:36:14;4.40;99.90
1878;DHT22;939;51.426;6.972;2024-03-08T05:38:42;4.40;99.90
1878;DHT22;939;51.426;6.972;2024-03-08T05:41:09;4.30;99.90
1878;DHT22;939;51.426;6.972;2024-03-08T05:43:35;4.30;99.90
1878;DHT22;939;51.426;6.972;2024-03-08T05:46:03;4.30;99.90
1878;DHT22;939;51.426;6.972;2024-03-08T05:48:32;4.30;99.90
1878;DHT22;939;51.426;6.972;2024-03-08T05:50:59;4.30;99.90
1878;DHT22;939;51.426;6.972;2024-03-08T05:53:28;4.30;99.90
1878;DHT22;939;51.426;6.972;2024-03-08T05:55:57;4.30;99.90
1878;DHT22;939;51.426;6.972;2024-03-08T05:58:24;4.30;99.90
1878;DHT22;939;51.426;6.972;2024-03-08T06:00:50;4.30;99.90
1878;DHT22;939;51.426;6.972;2024-03-08T06:03:17;4.30;99.90
1878;DHT22;939;51.426;6.972;2024-03-08T06:05:48;4.30;99.90
1878;DHT22;939;51.426;6.972;2024-03-08T06:08:15;4.30;99.90
1878;DHT22;939;51.426;6.972;2024-03-08T06:10:42;4.30;99.90
1878;DHT22;939;51.426;6.972;2024-03-08T06:13:09;4.30;99.90
1878;DHT22;939;51.426;6.972;2024-03-08T06:15:37;4.30;99.90
1878;DHT22;939;51.426;6.972;2024-03-08T06:18:04;4.30;99.90
1878;DHT22;939;51.426;6.972;2024-03-08T06:20:31;4.30;99.90
1878;DHT22;939;51.426;6.972;2024-03-08T06:23:00;4.20;99.90
1878;DHT22;939;51.426;6.972;2024-03-08T06:25:27;4.10;99.90
1878;DHT22;939;51.426;6.972;2024-03-08T06:27:53;4.10;99.90
1878;DHT22;939;51.426;6.972;2024-03-08T06:30:20;4.20;99.90
1878;DHT22;939;51.426;6.972;2024-03-08T06:32:47;4.30;99.90
1878;DHT22;939;51.426;6.972;2024-03-08T06:35:15;4.10;99.90
1878;DHT22;939;51.426;6.972;2024-03-08T06:37:41;4.00;99.90
1878;DHT22;939;51.426;6.972;2024-03-08T06:40:12;4.10;99.90
1878;DHT22;939;51.426;6.972;2024-03-08T06:42:40;3.90;99.90
1878;DHT22;939;51.426;6.972;2024-03-08T06:45:07;4.10;99.90
1878;DHT22;939;51.426;6.972;2024-03-08T06:47:35;4.20;99.90
1878;DHT22;939;51.426;6.972;2024-03-08T06:50:02;4.30;99.90
1878;DHT22;939;51.426;6.972;2024-03-08T06:52:29;4.40;99.90
1878;DHT22;939;51.426;6.972;2024-03-08T06:54:56;4.40;99.90
1878;DHT22;939;51.426;6.972;2024-03-08T06:57:24;4.40;99.90
1878;DHT22;939;51.426;6.972;2024-03-08T06:59:51;4.50;99.90
1878;DHT22;939;51.426;6.972;2024-03-08T07:02:19;4.60;99.90
1878;DHT22;939;51.426;6.972;2024-03-08T07:04:49;4.40;99.90
1878;DHT22;939;51.426;6.972;2024-03-08T07:07:16;4.40;99.90
1878;DHT22;939;51.426;6.972;2024-03-08T07:09:46;4.10;99.90
1878;DHT22;939;51.426;6.972;2024-03-08T07:12:15;4.00;99.90
1878;DHT22;939;51.426;6.972;2024-03-08T07:14:43;4.00;99.90
1878;DHT22;939;51.426;6.972;2024-03-08T07:17:11;4.00;99.90
1878;DHT22;939;51.426;6.972;2024-03-08T07:19:38;3.90;99.90
1878;DHT22;939;51.426;6.972;2024-03-08T07:22:05;4.00;99.90
1878;DHT22;939;51.426;6.972;2024-03-08T07:24:34;4.20;99.90
1878;DHT22;939;51.426;6.972;2024-03-08T07:27:05;4.40;99.90
1878;DHT22;939;51.426;6.972;2024-03-08T07:29:32;4.30;99.90
1878;DHT22;939;51.426;6.972;2024-03-08T07:32:03;4.20;99.90
1878;DHT22;939;51.426;6.972;2024-03-08T07:34:43;4.20;99.90
1878;DHT22;939;51.426;6.972;2024-03-08T07:37:10;4.20;99.90
1878;DHT22;939;51.426;6.972;2024-03-08T07:39:37;4.40;99.90
1878;DHT22;939;51.426;6.972;2024-03-08T07:42:05;4.60;99.90
1878;DHT22;939;51.426;6.972;2024-03-08T07:44:32;4.80;99.90
1878;DHT22;939;51.426;6.972;2024-03-08T07:46:58;4.40;99.90
1878;DHT22;939;51.426;6.972;2024-03-08T07:49:27;4.60;99.90
1878;DHT22;939;51.426;6.972;2024-03-08T07:51:53;4.70;99.90
1878;DHT22;939;51.426;6.972;2024-03-08T07:54:20;4.80;99.90
1878;DHT22;939;51.426;6.972;2024-03-08T07:56:47;4.90;99.90
1878;DHT22;939;51.426;6.972;2024-03-08T07:59:14;5.10;99.90
1878;DHT22;939;51.426;6.972;2024-03-08T08:01:41;5.10;99.90
1878;DHT22;939;51.426;6.972;2024-03-08T08:04:09;5.30;99.90
1878;DHT22;939;51.426;6.972;2024-03-08T08:06:39;5.40;99.90
1878;DHT22;939;51.426;6.972;2024-03-08T08:09:07;5.50;99.90
1878;DHT22;939;51.426;6.972;2024-03-08T08:11:39;5.60;99.90
1878;DHT22;939;51.426;6.972;2024-03-08T08:14:08;5.70;99.90
1878;DHT22;939;51.426;6.972;2024-03-08T08:16:36;5.80;99.90
1878;DHT22;939;51.426;6.972;2024-03-08T08:19:03;5.90;99.90
1878;DHT22;939;51.426;6.972;2024-03-08T08:21:33;5.90;99.90
1878;DHT22;939;51.426;6.972;2024-03-08T08:24:01;5.90;99.90
1878;DHT22;939;51.426;6.972;2024-03-08T08:26:28;6.10;99.90
1878;DHT22;939;51.426;6.972;2024-03-08T08:28:55;6.20;99.90
1878;DHT22;939;51.426;6.972;2024-03-08T08:31:22;6.30;99.90
1878;DHT22;939;51.426;6.972;2024-03-08T08:33:49;6.40;99.90
1878;DHT22;939;51.426;6.972;2024-03-08T08:36:17;6.50;99.90
1878;DHT22;939;51.426;6.972;2024-03-08T08:38:44;6.60;99.90
1878;DHT22;939;51.426;6.972;2024-03-08T08:41:13;6.70;99.90
1878;DHT22;939;51.426;6.972;2024-03-08T08:43:39;6.80;99.90
1878;DHT22;939;51.426;6.972;2024-03-08T08:46:09;6.90;99.90
1878;DHT22;939;51.426;6.972;2024-03-08T08:48:38;7.00;99.90
1878;DHT22;939;51.426;6.972;2024-03-08T08:51:06;7.10;99.90
1878;DHT22;939;51.426;6.972;2024-03-08T08:53:37;7.30;99.90
1878;DHT22;939;51.426;6.972;2024-03-08T08:56:06;7.50;99.90
1878;DHT22;939;51.426;6.972;2024-03-08T08:58:35;7.50;99.90
1878;DHT22;939;51.426;6.972;2024-03-08T09:01:01;7.80;99.90
1878;DHT22;939;51.426;6.972;2024-03-08T09:03:30;7.90;99.90
1878;DHT22;939;51.426;6.972;2024-03-08T09:06:00;7.90;99.90
1878;DHT22;939;51.426;6.972;2024-03-08T09:08:28;7.90;99.90
1878;DHT22;939;51.426;6.972;2024-03-08T09:10:55;8.10;99.90
1878;DHT22;939;51.426;6.972;2024-03-08T09:13:22;8.10;99.90
1878;DHT22;939;51.426;6.972;2024-03-08T09:15:50;7.80;99.90
1878;DHT22;939;51.426;6.972;2024-03-08T09:18:18;7.80;99.90
1878;DHT22;939;51.426;6.972;2024-03-08T09:20:45;7.70;99.90
1878;DHT22;939;51.426;6.972;2024-03-08T09:23:12;7.90;99.90
1878;DHT22;939;51.426;6.972;2024-03-08T09:25:40;8.10;99.90
1878;DHT22;939;51.426;6.972;2024-03-08T09:28:07;8.20;99.90
1878;DHT22;939;51.426;6.972;2024-03-08T09:30:34;8.30;99.90
1878;DHT22;939;51.426;6.972;2024-03-08T09:33:04;8.50;99.90
1878;DHT22;939;51.426;6.972;2024-03-08T09:35:31;8.40;99.90
1878;DHT22;939;51.426;6.972;2024-03-08T09:37:58;8.70;99.60
1878;DHT22;939;51.426;6.972;2024-03-08T09:40:24;8.80;99.40
1878;DHT22;939;51.426;6.972;2024-03-08T09:42:52;9.00;99.20
1878;DHT22;939;51.426;6.972;2024-03-08T09:45:21;9.50;98.80
1878;DHT22;939;51.426;6.972;2024-03-08T09:47:49;11.20;95.90
1878;DHT22;939;51.426;6.972;2024-03-08T09:50:17;13.00;92.30
1878;DHT22;939;51.426;6.972;2024-03-08T09:52:47;15.30;80.50
1878;DHT22;939;51.426;6.972;2024-03-08T09:55:16;17.40;65.00
1878;DHT22;939;51.426;6.972;2024-03-08T09:57:48;18.60;52.70
1878;DHT22;939;51.426;6.972;2024-03-08T10:00:29;20.40;44.30
1878;DHT22;939;51.426;6.972;2024-03-08T10:03:00;22.00;36.50
1878;DHT22;939;51.426;6.972;2024-03-08T10:05:29;23.40;27.50
1878;DHT22;939;51.426;6.972;2024-03-08T10:07:58;24.30;21.50
1878;DHT22;939;51.426;6.972;2024-03-08T10:10:25;25.50;16.70
1878;DHT22;939;51.426;6.972;2024-03-08T10:12:52;24.20;12.90
1878;DHT22;939;51.426;6.972;2024-03-08T10:15:19;25.00;13.50
1878;DHT22;939;51.426;6.972;2024-03-08T10:17:46;24.30;10.80
1878;DHT22;939;51.426;6.972;2024-03-08T10:20:14;24.60;10.80
1878;DHT22;939;51.426;6.972;2024-03-08T10:22:43;25.80;9.90
1878;DHT22;939;51.426;6.972;2024-03-08T10:25:10;27.10;8.60
1878;DHT22;939;51.426;6.972;2024-03-08T10:27:38;27.70;7.00
1878;DHT22;939;51.426;6.972;2024-03-08T10:30:07;28.60;5.60
1878;DHT22;939;51.426;6.972;2024-03-08T10:32:38;29.10;3.50
1878;DHT22;939;51.426;6.972;2024-03-08T10:35:07;28.10;1.40
1878;DHT22;939;51.426;6.972;2024-03-08T10:37:39;26.80;2.70
1878;DHT22;939;51.426;6.972;2024-03-08T10:40:16;27.10;3.60
1878;DHT22;939;51.426;6.972;2024-03-08T10:42:51;26.90;2.10
1878;DHT22;939;51.426;6.972;2024-03-08T10:45:26;27.20;2.60
1878;DHT22;939;51.426;6.972;2024-03-08T10:48:07;25.90;3.40
1878;DHT22;939;51.426;6.972;2024-03-08T10:50:35;25.60;3.40
1878;DHT22;939;51.426;6.972;2024-03-08T10:53:03;24.60;3.90
1878;DHT22;939;51.426;6.972;2024-03-08T10:55:33;23.10;4.60
1878;DHT22;939;51.426;6.972;2024-03-08T10:58:03;21.80;6.00
1878;DHT22;939;51.426;6.972;2024-03-08T11:00:30;19.60;7.70
1878;DHT22;939;51.426;6.972;2024-03-08T11:02:57;18.70;9.20
1878;DHT22;939;51.426;6.972;2024-03-08T11:05:35;17.80;10.60
1878;DHT22;939;51.426;6.972;2024-03-08T11:08:14;17.00;12.20
1878;DHT22;939;51.426;6.972;2024-03-08T11:10:48;15.10;14.50
1878;DHT22;939;51.426;6.972;2024-03-08T11:13:35;14.00;16.40
1878;DHT22;939;51.426;6.972;2024-03-08T11:16:02;13.80;17.90
1878;DHT22;939;51.426;6.972;2024-03-08T11:18:35;13.70;19.10
1878;DHT22;939;51.426;6.972;2024-03-08T11:21:03;13.30;21.00
1878;DHT22;939;51.426;6.972;2024-03-08T11:23:32;13.10;22.30
1878;DHT22;939;51.426;6.972;2024-03-08T11:26:00;13.00;24.10
1878;DHT22;939;51.426;6.972;2024-03-08T11:28:31;12.80;26.20
1878;DHT22;939;51.426;6.972;2024-03-08T11:31:31;12.60;25.70
1878;DHT22;939;51.426;6.972;2024-03-08T11:33:58;12.40;26.80
1878;DHT22;939;51.426;6.972;2024-03-08T11:36:26;12.40;27.90
1878;DHT22;939;51.426;6.972;2024-03-08T11:38:57;12.20;31.10
1878;DHT22;939;51.426;6.972;2024-03-08T11:41:26;12.20;30.10
1878;DHT22;939;51.426;6.972;2024-03-08T11:44:02;12.10;32.80
1878;DHT22;939;51.426;6.972;2024-03-08T11:46:31;12.10;32.50
1878;DHT22;939;51.426;6.972;2024-03-08T11:48:57;12.10;33.10
1878;DHT22;939;51.426;6.972;2024-03-08T11:51:26;12.00;32.60
1878;DHT22;939;51.426;6.972;2024-03-08T11:53:53;11.90;34.90
1878;DHT22;939;51.426;6.972;2024-03-08T11:56:20;11.90;35.70
1878;DHT22;939;51.426;6.972;2024-03-08T11:58:54;11.90;34.90
1878;DHT22;939;51.426;6.972;2024-03-08T12:01:23;11.90;36.00
1878;DHT22;939;51.426;6.972;2024-03-08T12:03:53;11.80;36.70
1878;DHT22;939;51.426;6.972;2024-03-08T12:06:20;11.90;38.10
1878;DHT22;939;51.426;6.972;2024-03-08T12:08:48;11.90;37.20
1878;DHT22;939;51.426;6.972;2024-03-08T12:11:19;12.00;37.60
1878;DHT22;939;51.426;6.972;2024-03-08T12:13:49;12.10;37.80
1878;DHT22;939;51.426;6.972;2024-03-08T12:16:19;12.10;37.10
1878;DHT22;939;51.426;6.972;2024-03-08T12:18:47;12.20;39.30
1878;DHT22;939;51.426;6.972;2024-03-08T12:21:15;11.80;36.70
1878;DHT22;939;51.426;6.972;2024-03-08T12:23:45;11.70;38.20
1878;DHT22;939;51.426;6.972;2024-03-08T12:26:17;11.90;38.30
1878;DHT22;939;51.426;6.972;2024-03-08T12:28:45;12.10;39.80
1878;DHT22;939;51.426;6.972;2024-03-08T12:31:13;12.10;40.00
1878;DHT22;939;51.426;6.972;2024-03-08T12:33:49;12.10;37.80
1878;DHT22;939;51.426;6.972;2024-03-08T12:36:17;12.20;39.10
1878;DHT22;939;51.426;6.972;2024-03-08T12:38:45;12.30;36.60
1878;DHT22;939;51.426;6.972;2024-03-08T12:41:14;12.10;37.20
1878;DHT22;939;51.426;6.972;2024-03-08T12:43:42;12.10;39.20
1878;DHT22;939;51.426;6.972;2024-03-08T12:46:14;12.30;39.00
1878;DHT22;939;51.426;6.972;2024-03-08T12:48:41;12.30;38.80
1878;DHT22;939;51.426;6.972;2024-03-08T12:51:11;12.30;37.40
1878;DHT22;939;51.426;6.972;2024-03-08T12:53:38;12.30;39.90
1878;DHT22;939;51.426;6.972;2024-03-08T12:56:06;12.40;38.70
1878;DHT22;939;51.426;6.972;2024-03-08T12:58:34;12.50;37.50
1878;DHT22;939;51.426;6.972;2024-03-08T13:01:02;12.60;35.70
1878;DHT22;939;51.426;6.972;2024-03-08T13:03:30;12.50;35.20
1878;DHT22;939;51.426;6.972;2024-03-08T13:05:57;12.30;35.10
1878;DHT22;939;51.426;6.972;2024-03-08T13:08:26;12.30;35.00
1878;DHT22;939;51.426;6.972;2024-03-08T13:10:55;12.20;34.20
1878;DHT22;939;51.426;6.972;2024-03-08T13:13:22;12.20;34.60
1878;DHT22;939;51.426;6.972;2024-03-08T13:15:50;12.30;34.40
1878;DHT22;939;51.426;6.972;2024-03-08T13:18:18;12.40;34.50
1878;DHT22;939;51.426;6.972;2024-03-08T13:20:45;12.40;32.60
1878;DHT22;939;51.426;6.972;2024-03-08T13:23:14;12.30;33.60
1878;DHT22;939;51.426;6.972;2024-03-08T13:25:43;12.50;33.70
1878;DHT22;939;51.426;6.972;2024-03-08T13:28:11;12.50;32.70
1878;DHT22;939;51.426;6.972;2024-03-08T13:30:38;12.50;32.80
1878;DHT22;939;51.426;6.972;2024-03-08T13:33:05;12.50;33.70
1878;DHT22;939;51.426;6.972;2024-03-08T13:35:32;12.40;32.50
1878;DHT22;939;51.426;6.972;2024-03-08T13:38:00;12.20;31.40
1878;DHT22;939;51.426;6.972;2024-03-08T13:40:28;12.30;32.30
1878;DHT22;939;51.426;6.972;2024-03-08T13:42:57;12.40;32.90
1878;DHT22;939;51.426;6.972;2024-03-08T13:45:26;12.50;32.50
1878;DHT22;939;51.426;6.972;2024-03-08T13:47:54;12.50;34.00
1878;DHT22;939;51.426;6.972;2024-03-08T13:50:21;12.60;32.90
1878;DHT22;939;51.426;6.972;2024-03-08T13:52:49;12.70;31.00
1878;DHT22;939;51.426;6.972;2024-03-08T13:55:16;13.50;29.60
1878;DHT22;939;51.426;6.972;2024-03-08T13:57:43;15.00;28.20
1878;DHT22;939;51.426;6.972;2024-03-08T14:00:13;16.60;28.60
1878;DHT22;939;51.426;6.972;2024-03-08T14:02:40;16.40;22.90
1878;DHT22;939;51.426;6.972;2024-03-08T14:05:07;16.50;22.30
1878;DHT22;939;51.426;6.972;2024-03-08T14:07:36;17.70;22.10
1878;DHT22;939;51.426;6.972;2024-03-08T14:10:04;18.40;19.40
1878;DHT22;939;51.426;6.972;2024-03-08T14:12:32;18.20;18.10
1878;DHT22;939;51.426;6.972;2024-03-08T14:15:00;19.40;18.40
1878;DHT22;939;51.426;6.972;2024-03-08T14:17:28;19.70;15.10
1878;DHT22;939;51.426;6.972;2024-03-08T14:19:56;19.50;16.70
1878;DHT22;939;51.426;6.972;2024-03-08T14:22:24;19.30;14.30
1878;DHT22;939;51.426;6.972;2024-03-08T14:24:51;18.40;15.40
1878;DHT22;939;51.426;6.972;2024-03-08T14:27:21;17.30;15.00
1878;DHT22;939;51.426;6.972;2024-03-08T14:29:51;17.30;17.00
1878;DHT22;939;51.426;6.972;2024-03-08T14:32:20;17.30;17.40
1878;DHT22;939;51.426;6.972;2024-03-08T14:34:50;17.40;16.70
1878;DHT22;939;51.426;6.972;2024-03-08T14:37:17;17.00;15.40
1878;DHT22;939;51.426;6.972;2024-03-08T14:39:48;17.20;16.90
1878;DHT22;939;51.426;6.972;2024-03-08T14:42:17;16.50;16.70
1878;DHT22;939;51.426;6.972;2024-03-08T14:44:44;16.50;16.80
1878;DHT22;939;51.426;6.972;2024-03-08T14:47:16;16.50;16.60
1878;DHT22;939;51.426;6.972;2024-03-08T14:49:43;15.60;17.30
1878;DHT22;939;51.426;6.972;2024-03-08T14:52:12;15.30;18.90
1878;DHT22;939;51.426;6.972;2024-03-08T14:54:53;15.00;18.90
1878;DHT22;939;51.426;6.972;2024-03-08T14:57:21;14.90;19.50
1878;DHT22;939;51.426;6.972;2024-03-08T14:59:48;14.80;19.90
1878;DHT22;939;51.426;6.972;2024-03-08T15:02:15;14.70;20.00
1878;DHT22;939;51.426;6.972;2024-03-08T15:04:46;15.50;21.80
1878;DHT22;939;51.426;6.972;2024-03-08T15:07:19;16.40;19.00
1878;DHT22;939;51.426;6.972;2024-03-08T15:09:46;16.60;17.80
1878;DHT22;939;51.426;6.972;2024-03-08T15:12:13;16.60;17.30
1878;DHT22;939;51.426;6.972;2024-03-08T15:14:41;16.80;17.60
1878;DHT22;939;51.426;6.972;2024-03-08T15:17:09;17.50;17.60
1878;DHT22;939;51.426;6.972;2024-03-08T15:19:46;18.00;17.50
1878;DHT22;939;51.426;6.972;2024-03-08T15:22:14;17.70;16.40
1878;DHT22;939;51.426;6.972;2024-03-08T15:24:44;16.70;18.40
1878;DHT22;939;51.426;6.972;2024-03-08T15:27:11;16.30;17.40
1878;DHT22;939;51.426;6.972;2024-03-08T15:29:38;15.60;18.00
1878;DHT22;939;51.426;6.972;2024-03-08T15:32:05;15.20;18.60
1878;DHT22;939;51.426;6.972;2024-03-08T15:34:32;14.80;19.20
1878;DHT22;939;51.426;6.972;2024-03-08T15:37:03;14.80;21.90
1878;DHT22;939;51.426;6.972;2024-03-08T15:39:30;15.30;19.50
1878;DHT22;939;51.426;6.972;2024-03-08T15:42:00;15.10;19.20
1878;DHT22;939;51.426;6.972;2024-03-08T15:44:27;15.00;19.60
1878;DHT22;939;51.426;6.972;2024-03-08T15:46:54;15.30;19.10
1878;DHT22;939;51.426;6.972;2024-03-08T15:49:21;15.60;19.70
1878;DHT22;939;51.426;6.972;2024-03-08T15:51:50;15.60;19.30
1878;DHT22;939;51.426;6.972;2024-03-08T15:54:16;15.10;18.50
1878;DHT22;939;51.426;6.972;2024-03-08T15:56:44;15.30;20.90
1878;DHT22;939;51.426;6.972;2024-03-08T15:59:12;15.40;19.30
1878;DHT22;939;51.426;6.972;2024-03-08T16:01:39;15.60;19.80
1878;DHT22;939;51.426;6.972;2024-03-08T16:04:07;15.30;19.90
1878;DHT22;939;51.426;6.972;2024-03-08T16:06:34;15.40;20.20
1878;DHT22;939;51.426;6.972;2024-03-08T16:09:02;15.00;20.90
1878;DHT22;939;51.426;6.972;2024-03-08T16:11:29;15.00;20.80
1878;DHT22;939;51.426;6.972;2024-03-08T16:13:58;14.90;21.60
1878;DHT22;939;51.426;6.972;2024-03-08T16:16:27;14.50;20.80
1878;DHT22;939;51.426;6.972;2024-03-08T16:18:55;14.60;21.60
1878;DHT22;939;51.426;6.972;2024-03-08T16:21:23;14.50;23.00
1878;DHT22;939;51.426;6.972;2024-03-08T16:23:50;14.20;22.10
1878;DHT22;939;51.426;6.972;2024-03-08T16:26:18;14.30;22.40
1878;DHT22;939;51.426;6.972;2024-03-08T16:28:45;14.30;21.90
1878;DHT22;939;51.426;6.972;2024-03-08T16:31:12;14.40;21.90
1878;DHT22;939;51.426;6.972;2024-03-08T16:33:41;14.50;22.70
1878;DHT22;939;51.426;6.972;2024-03-08T16:36:09;14.30;22.30